Milwaukee, Wisconsin
Traffic Map
Current Weather Conditions
Milwaukee, Wisconsin
Scattered Clouds
Scattered Clouds
-14°
Feels Like: -14°
Wind Chill: -14° Ceiling: Unl
Heat Index: -14° Visibility: 10mi
Dew Point: -21° Wind: 3mph
Humidity: 58% Direction: 260° (W)
Pressure: 30.46in Gusts: 0mph
Raw Report DataKMKE 140552Z 26003KT 10SM FEW200 SCT250 M14/M21 A3046 RMK AO2 SLP334 4/002 T11391206 11122 21139 411061178 56006
Traffic Incident Summary
Active as of:
Severity:
Category:
InformationThere was an issue retrieving the traffic information for this location. Please try a different location or try again shortly.
Advertisements
Track Severe Weather on mobile